High Gate, Missouri
Current Conditions -  °F | °C
As of 12:53 PM on Wednesday 26 Nov 2014 (Local Time) from KVIH Reporting Station
Overcast Overcast  
Wind Chill: 27°   Ceiling: 200
Heat Index: 34°   Visibility: 9mi
Dew Point: 32°   Wind: 9mph
Humidity: 92%   Direction: 250°WSW
Pressure: 29.93"   Gusts: NA
Location:  37.9936°N, 91.5964°W
Report Text: KVIH 261853Z AUTO 25008KT 9SM OVC002 01/00 A2993 RMK AO2 SNE1757 SLP146 P0000 T00110000
Loading
Personal Weather Stations






























Interactive Weather Map New forecast layout! Learn more

10-Day Weather Forecast

Advertisements
Track Severe Weather on mobile